Terminal Aerodrome Forecast
Issued by NWS

Home | Current Version | Previous Version | Text Only | Print | Product List | Glossary On
Versions: 1 2 3 4 5 6 7 8 9 10 11 12 13 14 15 16 17 18 19 20 21 22 23 24 25 26 27 28 29 30
000
FTUS46 KMTR 302300 RRA
TAFSFO
TAF
KSFO 302348Z 3100/0106 29012KT P6SM SKC
     FM310400 30010KT P6SM FEW008
     FM310600 29005KT 6SM BR FEW005
     FM311500 30004KT 6SM BR FEW009
     FM311800 06004KT P6SM SKC
     FM010000 30006KT P6SM SKC=

USA.gov is the U.S. government's official web portal to all federal, state and local government web resources and services.